sensor_id;sensor_type;location;lat;lon;timestamp;P1;durP1;ratioP1;P2;durP2;ratioP2
3979;SDS011;2004;52.452;13.120;2023-06-10T00:05:20;14.77;;;5.60;;
3979;SDS011;2004;52.452;13.120;2023-06-10T00:13:12;23.40;;;6.73;;
3979;SDS011;2004;52.452;13.120;2023-06-10T00:21:03;14.30;;;5.60;;
3979;SDS011;2004;52.452;13.120;2023-06-10T00:28:54;14.43;;;6.13;;
3979;SDS011;2004;52.452;13.120;2023-06-10T00:36:45;13.53;;;6.03;;
3979;SDS011;2004;52.452;13.120;2023-06-10T00:44:35;15.50;;;5.13;;
3979;SDS011;2004;52.452;13.120;2023-06-10T00:52:27;10.30;;;5.20;;
3979;SDS011;2004;52.452;13.120;2023-06-10T01:00:19;14.03;;;5.10;;
3979;SDS011;2004;52.452;13.120;2023-06-10T01:08:22;14.33;;;5.30;;
3979;SDS011;2004;52.452;13.120;2023-06-10T01:16:21;12.53;;;4.63;;
3979;SDS011;2004;52.452;13.120;2023-06-10T01:24:12;16.83;;;5.40;;
3979;SDS011;2004;52.452;13.120;2023-06-10T01:32:12;15.57;;;5.63;;
3979;SDS011;2004;52.452;13.120;2023-06-10T01:40:09;13.80;;;5.47;;
3979;SDS011;2004;52.452;13.120;2023-06-10T01:48:01;14.00;;;5.77;;
3979;SDS011;2004;52.452;13.120;2023-06-10T01:55:51;12.63;;;5.20;;
3979;SDS011;2004;52.452;13.120;2023-06-10T02:03:42;13.27;;;5.33;;
3979;SDS011;2004;52.452;13.120;2023-06-10T02:11:33;11.30;;;5.17;;
3979;SDS011;2004;52.452;13.120;2023-06-10T02:19:23;7.37;;;4.40;;
3979;SDS011;2004;52.452;13.120;2023-06-10T02:27:17;14.60;;;5.53;;
3979;SDS011;2004;52.452;13.120;2023-06-10T02:35:09;11.63;;;4.93;;
3979;SDS011;2004;52.452;13.120;2023-06-10T02:43:02;10.03;;;4.63;;
3979;SDS011;2004;52.452;13.120;2023-06-10T02:50:53;21.07;;;5.40;;
3979;SDS011;2004;52.452;13.120;2023-06-10T02:58:43;10.20;;;5.00;;
3979;SDS011;2004;52.452;13.120;2023-06-10T03:06:34;11.13;;;5.13;;
3979;SDS011;2004;52.452;13.120;2023-06-10T03:14:25;9.57;;;4.90;;
3979;SDS011;2004;52.452;13.120;2023-06-10T03:22:16;13.67;;;5.40;;
3979;SDS011;2004;52.452;13.120;2023-06-10T03:30:07;18.17;;;5.70;;
3979;SDS011;2004;52.452;13.120;2023-06-10T03:37:58;8.30;;;5.30;;
3979;SDS011;2004;52.452;13.120;2023-06-10T03:45:49;8.33;;;4.67;;
3979;SDS011;2004;52.452;13.120;2023-06-10T03:53:41;14.80;;;4.90;;
3979;SDS011;2004;52.452;13.120;2023-06-10T04:01:31;11.63;;;5.30;;
3979;SDS011;2004;52.452;13.120;2023-06-10T04:09:23;9.17;;;4.63;;
3979;SDS011;2004;52.452;13.120;2023-06-10T04:17:13;15.87;;;5.77;;
3979;SDS011;2004;52.452;13.120;2023-06-10T04:25:05;12.20;;;5.33;;
3979;SDS011;2004;52.452;13.120;2023-06-10T04:32:57;10.33;;;5.43;;
3979;SDS011;2004;52.452;13.120;2023-06-10T04:40:48;13.27;;;5.87;;
3979;SDS011;2004;52.452;13.120;2023-06-10T04:48:38;12.20;;;5.83;;
3979;SDS011;2004;52.452;13.120;2023-06-10T04:56:32;14.27;;;6.30;;
3979;SDS011;2004;52.452;13.120;2023-06-10T05:04:22;11.30;;;6.50;;
3979;SDS011;2004;52.452;13.120;2023-06-10T05:12:13;14.20;;;6.23;;
3979;SDS011;2004;52.452;13.120;2023-06-10T05:20:04;21.43;;;6.97;;
3979;SDS011;2004;52.452;13.120;2023-06-10T05:27:54;23.20;;;6.27;;
3979;SDS011;2004;52.452;13.120;2023-06-10T05:35:46;16.90;;;6.83;;
3979;SDS011;2004;52.452;13.120;2023-06-10T05:43:36;17.43;;;7.57;;
3979;SDS011;2004;52.452;13.120;2023-06-10T05:51:27;30.00;;;8.40;;
3979;SDS011;2004;52.452;13.120;2023-06-10T05:59:18;13.70;;;6.50;;
3979;SDS011;2004;52.452;13.120;2023-06-10T06:07:10;12.03;;;6.40;;
3979;SDS011;2004;52.452;13.120;2023-06-10T06:15:00;12.17;;;6.30;;
3979;SDS011;2004;52.452;13.120;2023-06-10T06:22:51;17.90;;;7.23;;
3979;SDS011;2004;52.452;13.120;2023-06-10T06:30:41;16.43;;;6.90;;
3979;SDS011;2004;52.452;13.120;2023-06-10T06:38:32;17.70;;;7.03;;
3979;SDS011;2004;52.452;13.120;2023-06-10T06:46:23;14.00;;;6.23;;
3979;SDS011;2004;52.452;13.120;2023-06-10T06:54:16;11.17;;;7.27;;
3979;SDS011;2004;52.452;13.120;2023-06-10T07:02:08;12.63;;;6.47;;
3979;SDS011;2004;52.452;13.120;2023-06-10T07:09:58;20.30;;;7.33;;
3979;SDS011;2004;52.452;13.120;2023-06-10T07:17:49;11.53;;;6.27;;
3979;SDS011;2004;52.452;13.120;2023-06-10T07:25:40;13.27;;;7.20;;
3979;SDS011;2004;52.452;13.120;2023-06-10T07:33:31;14.53;;;8.10;;
3979;SDS011;2004;52.452;13.120;2023-06-10T07:41:25;13.50;;;7.87;;
3979;SDS011;2004;52.452;13.120;2023-06-10T07:49:15;16.87;;;7.60;;
3979;SDS011;2004;52.452;13.120;2023-06-10T07:57:06;13.00;;;6.93;;
3979;SDS011;2004;52.452;13.120;2023-06-10T08:04:57;15.03;;;6.87;;
3979;SDS011;2004;52.452;13.120;2023-06-10T08:12:47;14.10;;;6.93;;
3979;SDS011;2004;52.452;13.120;2023-06-10T08:20:38;13.23;;;6.90;;
3979;SDS011;2004;52.452;13.120;2023-06-10T08:28:28;16.10;;;7.30;;
3979;SDS011;2004;52.452;13.120;2023-06-10T08:36:19;12.93;;;6.93;;
3979;SDS011;2004;52.452;13.120;2023-06-10T08:44:11;11.73;;;7.50;;
3979;SDS011;2004;52.452;13.120;2023-06-10T08:52:08;12.93;;;7.33;;
3979;SDS011;2004;52.452;13.120;2023-06-10T09:00:06;13.10;;;7.23;;
3979;SDS011;2004;52.452;13.120;2023-06-10T09:07:57;9.67;;;6.50;;
3979;SDS011;2004;52.452;13.120;2023-06-10T09:15:48;12.53;;;8.00;;
3979;SDS011;2004;52.452;13.120;2023-06-10T09:23:41;12.57;;;6.83;;
3979;SDS011;2004;52.452;13.120;2023-06-10T09:31:34;9.20;;;7.47;;
3979;SDS011;2004;52.452;13.120;2023-06-10T09:39:25;20.77;;;7.90;;
3979;SDS011;2004;52.452;13.120;2023-06-10T09:47:19;23.70;;;8.20;;
3979;SDS011;2004;52.452;13.120;2023-06-10T09:55:14;16.80;;;7.77;;
3979;SDS011;2004;52.452;13.120;2023-06-10T10:03:04;13.60;;;7.03;;
3979;SDS011;2004;52.452;13.120;2023-06-10T10:10:57;11.70;;;7.10;;
3979;SDS011;2004;52.452;13.120;2023-06-10T10:18:53;12.23;;;7.50;;
3979;SDS011;2004;52.452;13.120;2023-06-10T10:26:46;14.00;;;8.33;;
3979;SDS011;2004;52.452;13.120;2023-06-10T10:34:43;13.10;;;8.47;;
3979;SDS011;2004;52.452;13.120;2023-06-10T10:42:52;14.10;;;7.17;;
3979;SDS011;2004;52.452;13.120;2023-06-10T10:50:43;11.07;;;7.40;;
3979;SDS011;2004;52.452;13.120;2023-06-10T10:59:05;9.40;;;6.90;;
3979;SDS011;2004;52.452;13.120;2023-06-10T11:06:58;14.67;;;6.80;;
3979;SDS011;2004;52.452;13.120;2023-06-10T11:14:56;13.00;;;7.77;;
3979;SDS011;2004;52.452;13.120;2023-06-10T11:22:58;9.17;;;5.57;;
3979;SDS011;2004;52.452;13.120;2023-06-10T11:30:56;10.50;;;5.50;;
3979;SDS011;2004;52.452;13.120;2023-06-10T11:38:47;7.47;;;4.70;;
3979;SDS011;2004;52.452;13.120;2023-06-10T11:46:39;6.57;;;5.50;;
3979;SDS011;2004;52.452;13.120;2023-06-10T11:54:32;15.90;;;5.80;;
3979;SDS011;2004;52.452;13.120;2023-06-10T12:02:23;9.10;;;5.40;;
3979;SDS011;2004;52.452;13.120;2023-06-10T12:10:13;16.10;;;5.60;;
3979;SDS011;2004;52.452;13.120;2023-06-10T12:18:04;7.10;;;5.27;;
3979;SDS011;2004;52.452;13.120;2023-06-10T12:25:55;9.70;;;6.63;;
3979;SDS011;2004;52.452;13.120;2023-06-10T12:33:49;7.37;;;6.13;;
3979;SDS011;2004;52.452;13.120;2023-06-10T12:41:40;6.83;;;6.13;;
3979;SDS011;2004;52.452;13.120;2023-06-10T12:49:36;9.13;;;5.20;;
3979;SDS011;2004;52.452;13.120;2023-06-10T12:57:27;9.30;;;5.40;;
3979;SDS011;2004;52.452;13.120;2023-06-10T13:05:18;16.07;;;7.33;;
3979;SDS011;2004;52.452;13.120;2023-06-10T13:13:10;6.70;;;5.60;;
3979;SDS011;2004;52.452;13.120;2023-06-10T13:21:00;8.80;;;6.50;;
3979;SDS011;2004;52.452;13.120;2023-06-10T13:28:51;13.97;;;6.07;;
3979;SDS011;2004;52.452;13.120;2023-06-10T13:36:42;17.33;;;6.23;;
3979;SDS011;2004;52.452;13.120;2023-06-10T13:44:33;8.00;;;6.60;;
3979;SDS011;2004;52.452;13.120;2023-06-10T13:52:26;10.43;;;6.50;;
3979;SDS011;2004;52.452;13.120;2023-06-10T14:00:16;8.87;;;6.80;;
3979;SDS011;2004;52.452;13.120;2023-06-10T14:08:07;8.03;;;6.83;;
3979;SDS011;2004;52.452;13.120;2023-06-10T14:15:58;10.80;;;6.90;;
3979;SDS011;2004;52.452;13.120;2023-06-10T14:23:52;15.90;;;6.33;;
3979;SDS011;2004;52.452;13.120;2023-06-10T14:31:43;6.60;;;6.07;;
3979;SDS011;2004;52.452;13.120;2023-06-10T14:39:33;15.20;;;7.17;;
3979;SDS011;2004;52.452;13.120;2023-06-10T14:47:24;10.70;;;7.00;;
3979;SDS011;2004;52.452;13.120;2023-06-10T14:55:15;15.10;;;6.23;;
3979;SDS011;2004;52.452;13.120;2023-06-10T15:03:06;8.93;;;6.00;;
3979;SDS011;2004;52.452;13.120;2023-06-10T15:10:56;11.43;;;6.07;;
3979;SDS011;2004;52.452;13.120;2023-06-10T15:18:47;7.60;;;5.97;;
3979;SDS011;2004;52.452;13.120;2023-06-10T15:26:37;7.20;;;5.70;;
3979;SDS011;2004;52.452;13.120;2023-06-10T15:34:28;9.90;;;5.30;;
3979;SDS011;2004;52.452;13.120;2023-06-10T15:42:19;12.97;;;5.17;;
3979;SDS011;2004;52.452;13.120;2023-06-10T15:50:10;6.27;;;5.20;;
3979;SDS011;2004;52.452;13.120;2023-06-10T15:58:00;9.30;;;5.57;;
3979;SDS011;2004;52.452;13.120;2023-06-10T16:05:53;9.37;;;5.63;;
3979;SDS011;2004;52.452;13.120;2023-06-10T16:13:44;9.77;;;5.10;;
3979;SDS011;2004;52.452;13.120;2023-06-10T16:21:36;11.03;;;4.77;;
3979;SDS011;2004;52.452;13.120;2023-06-10T16:29:29;8.43;;;5.70;;
3979;SDS011;2004;52.452;13.120;2023-06-10T16:37:20;8.13;;;4.90;;
3979;SDS011;2004;52.452;13.120;2023-06-10T16:45:10;11.03;;;5.60;;
3979;SDS011;2004;52.452;13.120;2023-06-10T16:53:02;9.23;;;4.77;;
3979;SDS011;2004;52.452;13.120;2023-06-10T17:00:54;11.47;;;5.20;;
3979;SDS011;2004;52.452;13.120;2023-06-10T17:08:52;9.83;;;5.00;;
3979;SDS011;2004;52.452;13.120;2023-06-10T17:16:43;10.50;;;5.23;;
3979;SDS011;2004;52.452;13.120;2023-06-10T17:24:35;8.67;;;4.83;;
3979;SDS011;2004;52.452;13.120;2023-06-10T17:32:25;10.00;;;5.60;;
3979;SDS011;2004;52.452;13.120;2023-06-10T17:40:16;5.70;;;4.53;;
3979;SDS011;2004;52.452;13.120;2023-06-10T17:48:06;4.60;;;4.20;;
3979;SDS011;2004;52.452;13.120;2023-06-10T17:55:57;7.90;;;4.40;;
3979;SDS011;2004;52.452;13.120;2023-06-10T18:03:47;5.30;;;4.90;;
3979;SDS011;2004;52.452;13.120;2023-06-10T18:11:38;5.63;;;4.63;;
3979;SDS011;2004;52.452;13.120;2023-06-10T18:19:28;14.33;;;4.90;;
3979;SDS011;2004;52.452;13.120;2023-06-10T18:27:19;7.80;;;4.20;;
3979;SDS011;2004;52.452;13.120;2023-06-10T18:35:09;16.57;;;6.63;;
3979;SDS011;2004;52.452;13.120;2023-06-10T18:43:00;5.17;;;4.40;;
3979;SDS011;2004;52.452;13.120;2023-06-10T18:50:50;4.90;;;4.47;;
3979;SDS011;2004;52.452;13.120;2023-06-10T18:58:41;9.10;;;6.10;;
3979;SDS011;2004;52.452;13.120;2023-06-10T19:06:33;6.00;;;5.40;;
3979;SDS011;2004;52.452;13.120;2023-06-10T19:14:24;9.47;;;5.97;;
3979;SDS011;2004;52.452;13.120;2023-06-10T19:22:16;6.60;;;4.90;;
3979;SDS011;2004;52.452;13.120;2023-06-10T19:30:07;6.90;;;4.80;;
3979;SDS011;2004;52.452;13.120;2023-06-10T19:37:58;9.83;;;5.10;;
3979;SDS011;2004;52.452;13.120;2023-06-10T19:45:49;7.83;;;5.40;;
3979;SDS011;2004;52.452;13.120;2023-06-10T19:53:39;15.10;;;4.90;;
3979;SDS011;2004;52.452;13.120;2023-06-10T20:01:30;6.30;;;5.13;;
3979;SDS011;2004;52.452;13.120;2023-06-10T20:09:20;5.87;;;5.27;;
3979;SDS011;2004;52.452;13.120;2023-06-10T20:17:12;8.50;;;5.03;;
3979;SDS011;2004;52.452;13.120;2023-06-10T20:25:03;14.27;;;4.70;;
3979;SDS011;2004;52.452;13.120;2023-06-10T20:32:54;10.63;;;4.47;;
3979;SDS011;2004;52.452;13.120;2023-06-10T20:40:44;7.27;;;4.10;;
3979;SDS011;2004;52.452;13.120;2023-06-10T20:48:35;14.67;;;3.90;;
3979;SDS011;2004;52.452;13.120;2023-06-10T20:56:28;10.37;;;4.10;;
3979;SDS011;2004;52.452;13.120;2023-06-10T21:04:20;6.03;;;4.23;;
3979;SDS011;2004;52.452;13.120;2023-06-10T21:12:11;11.50;;;3.70;;
3979;SDS011;2004;52.452;13.120;2023-06-10T21:20:01;6.83;;;4.90;;
3979;SDS011;2004;52.452;13.120;2023-06-10T21:27:52;12.87;;;4.40;;
3979;SDS011;2004;52.452;13.120;2023-06-10T21:35:43;7.33;;;4.20;;
3979;SDS011;2004;52.452;13.120;2023-06-10T21:43:36;4.83;;;3.93;;
3979;SDS011;2004;52.452;13.120;2023-06-10T21:51:27;5.87;;;4.73;;
3979;SDS011;2004;52.452;13.120;2023-06-10T21:59:18;6.00;;;4.00;;
3979;SDS011;2004;52.452;13.120;2023-06-10T22:07:10;4.60;;;4.00;;
3979;SDS011;2004;52.452;13.120;2023-06-10T22:15:01;9.03;;;5.10;;
3979;SDS011;2004;52.452;13.120;2023-06-10T22:22:54;8.87;;;5.20;;
3979;SDS011;2004;52.452;13.120;2023-06-10T22:30:45;7.57;;;4.63;;
3979;SDS011;2004;52.452;13.120;2023-06-10T22:38:35;6.40;;;5.40;;
3979;SDS011;2004;52.452;13.120;2023-06-10T22:46:26;8.33;;;5.30;;
3979;SDS011;2004;52.452;13.120;2023-06-10T22:54:16;19.20;;;5.00;;
3979;SDS011;2004;52.452;13.120;2023-06-10T23:02:07;6.20;;;4.53;;
3979;SDS011;2004;52.452;13.120;2023-06-10T23:09:57;16.30;;;4.97;;
3979;SDS011;2004;52.452;13.120;2023-06-10T23:17:48;5.70;;;4.90;;
3979;SDS011;2004;52.452;13.120;2023-06-10T23:25:39;5.13;;;4.10;;
3979;SDS011;2004;52.452;13.120;2023-06-10T23:33:34;7.67;;;4.90;;
3979;SDS011;2004;52.452;13.120;2023-06-10T23:41:25;6.37;;;4.37;;
3979;SDS011;2004;52.452;13.120;2023-06-10T23:49:15;6.80;;;4.57;;
3979;SDS011;2004;52.452;13.120;2023-06-10T23:57:06;5.40;;;4.67;;
